Airfield :
LOGIN :

Register | Disclaimer

   EN    FR    IT 

 










Legend :    VFR   Marginal VFR   IFR   Intensive IFR   Very Intensive IFR
Visi :
Ceiling :
>= 8 km
>= 3000ft
5 to 8 km
1000 to 3000 ft
1500m to 5 km
500 to 1000 ft
800 to 1500m
200 to 500 ft
< 800m
< 200 ft
Symbols :   Thunderstorms  Fog  Heavy snow  Heavy precipitations  Wind > 20 kt
SIGMETs :     Misc.  Thunderstorms  Icing  Turbulence  Mountain Waves  Volcanic Ashes







- Airport Elevation : 97 ft
- IATA code : EBJ


EKEB - Esbjerg

CURRENT METAR :
  • 290350Z AUTO 27012KT 2300NDV BR OVC002/// 11/11 Q1014

EXPIRED METARs :
  • 290320Z AUTO 27009KT 1600NDV BR BKN002/// 11/11 Q1014
  • 290250Z AUTO 28009KT 2200NDV BR BKN001/// 11/11 Q1013
  • 290220Z AUTO 27009KT 3200NDV BR BKN002/// 11/11 Q1013
  • 290150Z AUTO 28008KT 3700NDV BR BKN002/// 11/11 Q1014
  • 290120Z AUTO 28009KT 4200NDV BR BKN002/// 11/11 Q1014

TAF TAF EKEB
Valid from the 29 at 03:00 until the 29 at 12:00 UTC


290252Z 2903/2912 30012KT 2000 BR BKN001
TEMPO 2903/2907 4000 BKN008
BECMG 2907/2909 9999 NSW BKN012
BECMG 2910/2912 SCT020
No reported NOTAMs for that airfield.



MET'MAP, your aeronautical weather chart ! - Copyright ORBIFLY December 2007 - Disclaimer

ORBIFLY MET'MAP TEAM :

Programming & Development : Alexandra Zaïnal
Concept & Development : Baudouin d'Aumeries
Co-Development & Prog : Marc-Olivier Méhu
Technical & hardware support : Manuel Goepfert

Contact : metmap@orbifly.com




SOURCES & CREDITS :

   NOAA